Weather at Cunnamulla Airport

Public forecast

Using degrees Celsius for public forecast. Weather courtesy of forecast.io.

Closest aviation weather report (METAR) to Cunnamulla Airport

Closest report is Charleville Airport, 102.9 nm (190.6 km) NNE. Retrieved 2021/06/19 20:00 UTC (44 minutes ago):

YBCV 192000Z AUTO 00000KT 9999 // NCD 02/00 Q1021

Closest aviation forecast (TAF) to Cunnamulla Airport

Closest forecast is Tamworth Airport, 328.7 nm (608.7 km) SE. Retrieved 2021/06/19 18:36 UTC (2 hours ago):

TAF TAF YSTW 191713Z 1918/2012 22006KT 9999 -DZ SCT025 BECMG 1922/2000 17010KT 9999 NSW SCT035 FM200600 17007KT CAVOK